sensor_id;sensor_type;location;lat;lon;timestamp;P1;durP1;ratioP1;P2;durP2;ratioP2
53652;SDS011;39553;52.954;5.932;2023-04-01T00:00:56;10.75;;;7.53;;
53652;SDS011;39553;52.954;5.932;2023-04-01T00:03:23;12.65;;;7.28;;
53652;SDS011;39553;52.954;5.932;2023-04-01T00:05:51;9.85;;;6.72;;
53652;SDS011;39553;52.954;5.932;2023-04-01T00:08:17;12.73;;;7.03;;
53652;SDS011;39553;52.954;5.932;2023-04-01T00:10:43;12.65;;;8.60;;
53652;SDS011;39553;52.954;5.932;2023-04-01T00:13:09;12.57;;;7.68;;
53652;SDS011;39553;52.954;5.932;2023-04-01T00:15:35;13.25;;;7.65;;
53652;SDS011;39553;52.954;5.932;2023-04-01T00:18:01;11.85;;;7.68;;
53652;SDS011;39553;52.954;5.932;2023-04-01T00:20:27;11.63;;;7.88;;
53652;SDS011;39553;52.954;5.932;2023-04-01T00:22:53;11.10;;;7.38;;
53652;SDS011;39553;52.954;5.932;2023-04-01T00:25:20;13.48;;;7.70;;
53652;SDS011;39553;52.954;5.932;2023-04-01T00:27:46;11.13;;;7.03;;
53652;SDS011;39553;52.954;5.932;2023-04-01T00:30:12;10.05;;;7.55;;
53652;SDS011;39553;52.954;5.932;2023-04-01T00:32:38;10.30;;;7.07;;
53652;SDS011;39553;52.954;5.932;2023-04-01T00:35:04;10.65;;;7.43;;
53652;SDS011;39553;52.954;5.932;2023-04-01T00:37:30;10.52;;;6.93;;
53652;SDS011;39553;52.954;5.932;2023-04-01T00:39:56;10.15;;;6.45;;
53652;SDS011;39553;52.954;5.932;2023-04-01T00:42:22;10.25;;;6.38;;
53652;SDS011;39553;52.954;5.932;2023-04-01T00:44:52;9.82;;;6.53;;
53652;SDS011;39553;52.954;5.932;2023-04-01T00:47:19;10.07;;;6.13;;
53652;SDS011;39553;52.954;5.932;2023-04-01T00:49:46;8.30;;;5.85;;
53652;SDS011;39553;52.954;5.932;2023-04-01T00:52:16;7.60;;;5.63;;
53652;SDS011;39553;52.954;5.932;2023-04-01T00:54:47;10.82;;;5.55;;
53652;SDS011;39553;52.954;5.932;2023-04-01T00:57:25;9.90;;;5.03;;
53652;SDS011;39553;52.954;5.932;2023-04-01T00:59:57;7.22;;;4.68;;
53652;SDS011;39553;52.954;5.932;2023-04-01T01:02:24;7.72;;;4.40;;
53652;SDS011;39553;52.954;5.932;2023-04-01T01:04:50;6.55;;;4.45;;
53652;SDS011;39553;52.954;5.932;2023-04-01T01:10:18;5.65;;;3.70;;
53652;SDS011;39553;52.954;5.932;2023-04-01T01:13:04;5.32;;;3.80;;
53652;SDS011;39553;52.954;5.932;2023-04-01T01:15:58;6.38;;;3.92;;
53652;SDS011;39553;52.954;5.932;2023-04-01T01:22:14;8.85;;;4.88;;
53652;SDS011;39553;52.954;5.932;2023-04-01T01:25:09;6.88;;;4.20;;
53652;SDS011;39553;52.954;5.932;2023-04-01T01:28:04;7.75;;;4.70;;
53652;SDS011;39553;52.954;5.932;2023-04-01T01:31:02;9.07;;;4.72;;
53652;SDS011;39553;52.954;5.932;2023-04-01T01:33:45;8.63;;;4.38;;
53652;SDS011;39553;52.954;5.932;2023-04-01T01:36:14;8.05;;;4.38;;
53652;SDS011;39553;52.954;5.932;2023-04-01T01:38:44;7.28;;;4.55;;
53652;SDS011;39553;52.954;5.932;2023-04-01T01:41:12;7.72;;;5.10;;
53652;SDS011;39553;52.954;5.932;2023-04-01T01:43:42;6.70;;;4.57;;
53652;SDS011;39553;52.954;5.932;2023-04-01T01:46:11;10.05;;;5.35;;
53652;SDS011;39553;52.954;5.932;2023-04-01T01:48:40;7.55;;;4.70;;
53652;SDS011;39553;52.954;5.932;2023-04-01T01:51:08;7.38;;;4.60;;
53652;SDS011;39553;52.954;5.932;2023-04-01T01:53:34;8.73;;;5.75;;
53652;SDS011;39553;52.954;5.932;2023-04-01T01:56:00;7.50;;;5.45;;
53652;SDS011;39553;52.954;5.932;2023-04-01T01:58:30;8.75;;;5.25;;
53652;SDS011;39553;52.954;5.932;2023-04-01T02:01:14;8.23;;;5.63;;
53652;SDS011;39553;52.954;5.932;2023-04-01T02:03:44;11.13;;;5.27;;
53652;SDS011;39553;52.954;5.932;2023-04-01T02:06:13;10.02;;;5.97;;
53652;SDS011;39553;52.954;5.932;2023-04-01T02:08:52;9.38;;;5.18;;
53652;SDS011;39553;52.954;5.932;2023-04-01T02:11:30;9.13;;;5.88;;
53652;SDS011;39553;52.954;5.932;2023-04-01T02:14:10;12.00;;;6.47;;
53652;SDS011;39553;52.954;5.932;2023-04-01T02:16:46;8.68;;;5.90;;
53652;SDS011;39553;52.954;5.932;2023-04-01T02:19:15;9.02;;;5.78;;
53652;SDS011;39553;52.954;5.932;2023-04-01T02:21:48;9.00;;;6.07;;
53652;SDS011;39553;52.954;5.932;2023-04-01T02:24:18;10.43;;;6.45;;
53652;SDS011;39553;52.954;5.932;2023-04-01T02:26:48;10.90;;;6.28;;
53652;SDS011;39553;52.954;5.932;2023-04-01T02:29:19;11.48;;;5.95;;
53652;SDS011;39553;52.954;5.932;2023-04-01T02:31:46;10.77;;;6.68;;
53652;SDS011;39553;52.954;5.932;2023-04-01T02:34:13;11.18;;;6.50;;
53652;SDS011;39553;52.954;5.932;2023-04-01T02:36:39;9.52;;;5.97;;
53652;SDS011;39553;52.954;5.932;2023-04-01T02:39:05;9.50;;;6.30;;
53652;SDS011;39553;52.954;5.932;2023-04-01T02:41:38;8.38;;;6.38;;
53652;SDS011;39553;52.954;5.932;2023-04-01T02:44:08;9.55;;;6.28;;
53652;SDS011;39553;52.954;5.932;2023-04-01T02:46:35;11.13;;;6.25;;
53652;SDS011;39553;52.954;5.932;2023-04-01T02:49:01;8.95;;;5.60;;
53652;SDS011;39553;52.954;5.932;2023-04-01T02:51:27;8.52;;;5.70;;
53652;SDS011;39553;52.954;5.932;2023-04-01T02:53:53;9.02;;;5.20;;
53652;SDS011;39553;52.954;5.932;2023-04-01T02:56:19;6.97;;;5.10;;
53652;SDS011;39553;52.954;5.932;2023-04-01T02:58:46;5.22;;;4.03;;
53652;SDS011;39553;52.954;5.932;2023-04-01T03:01:12;4.32;;;3.00;;
53652;SDS011;39553;52.954;5.932;2023-04-01T03:03:38;3.55;;;2.55;;
53652;SDS011;39553;52.954;5.932;2023-04-01T03:06:08;3.05;;;2.40;;
53652;SDS011;39553;52.954;5.932;2023-04-01T03:08:35;2.83;;;2.08;;
53652;SDS011;39553;52.954;5.932;2023-04-01T03:11:01;2.65;;;1.55;;
53652;SDS011;39553;52.954;5.932;2023-04-01T03:13:27;2.22;;;1.50;;
53652;SDS011;39553;52.954;5.932;2023-04-01T03:15:53;1.88;;;1.60;;
53652;SDS011;39553;52.954;5.932;2023-04-01T03:18:19;2.08;;;1.00;;
53652;SDS011;39553;52.954;5.932;2023-04-01T03:20:45;1.45;;;1.00;;
53652;SDS011;39553;52.954;5.932;2023-04-01T03:23:11;1.33;;;0.80;;
53652;SDS011;39553;52.954;5.932;2023-04-01T03:25:37;1.63;;;1.00;;
53652;SDS011;39553;52.954;5.932;2023-04-01T03:28:03;2.50;;;1.08;;
53652;SDS011;39553;52.954;5.932;2023-04-01T03:30:29;2.28;;;1.30;;
53652;SDS011;39553;52.954;5.932;2023-04-01T03:32:56;2.58;;;1.42;;
53652;SDS011;39553;52.954;5.932;2023-04-01T03:35:27;1.92;;;1.33;;
53652;SDS011;39553;52.954;5.932;2023-04-01T03:37:53;2.60;;;1.85;;
53652;SDS011;39553;52.954;5.932;2023-04-01T03:40:20;4.45;;;1.95;;
53652;SDS011;39553;52.954;5.932;2023-04-01T03:42:46;4.53;;;2.20;;
53652;SDS011;39553;52.954;5.932;2023-04-01T03:45:12;3.35;;;2.17;;
53652;SDS011;39553;52.954;5.932;2023-04-01T03:47:38;5.72;;;2.33;;
53652;SDS011;39553;52.954;5.932;2023-04-01T03:50:04;3.85;;;2.67;;
53652;SDS011;39553;52.954;5.932;2023-04-01T03:52:31;4.53;;;2.88;;
53652;SDS011;39553;52.954;5.932;2023-04-01T03:54:57;6.55;;;3.55;;
53652;SDS011;39553;52.954;5.932;2023-04-01T03:57:23;5.47;;;3.20;;
53652;SDS011;39553;52.954;5.932;2023-04-01T03:59:48;5.10;;;3.10;;
53652;SDS011;39553;52.954;5.932;2023-04-01T04:02:14;7.47;;;3.80;;
53652;SDS011;39553;52.954;5.932;2023-04-01T04:04:40;6.55;;;3.55;;
53652;SDS011;39553;52.954;5.932;2023-04-01T04:07:06;5.82;;;3.88;;
53652;SDS011;39553;52.954;5.932;2023-04-01T04:09:32;7.55;;;4.80;;
53652;SDS011;39553;52.954;5.932;2023-04-01T04:11:58;7.10;;;4.30;;
53652;SDS011;39553;52.954;5.932;2023-04-01T04:14:25;6.75;;;4.13;;
53652;SDS011;39553;52.954;5.932;2023-04-01T04:16:51;7.35;;;4.07;;
53652;SDS011;39553;52.954;5.932;2023-04-01T04:19:16;7.85;;;3.75;;
53652;SDS011;39553;52.954;5.932;2023-04-01T04:21:42;6.60;;;4.00;;
53652;SDS011;39553;52.954;5.932;2023-04-01T04:24:08;6.05;;;4.35;;
53652;SDS011;39553;52.954;5.932;2023-04-01T04:26:35;7.47;;;4.47;;
53652;SDS011;39553;52.954;5.932;2023-04-01T04:29:01;10.18;;;4.72;;
53652;SDS011;39553;52.954;5.932;2023-04-01T04:31:27;8.15;;;4.72;;
53652;SDS011;39553;52.954;5.932;2023-04-01T04:33:53;8.27;;;5.18;;
53652;SDS011;39553;52.954;5.932;2023-04-01T04:36:20;10.20;;;5.10;;
53652;SDS011;39553;52.954;5.932;2023-04-01T04:38:46;6.95;;;4.20;;
53652;SDS011;39553;52.954;5.932;2023-04-01T04:41:13;7.55;;;4.72;;
53652;SDS011;39553;52.954;5.932;2023-04-01T04:43:40;7.00;;;4.38;;
53652;SDS011;39553;52.954;5.932;2023-04-01T04:46:07;7.72;;;4.88;;
53652;SDS011;39553;52.954;5.932;2023-04-01T04:48:36;9.90;;;5.28;;
53652;SDS011;39553;52.954;5.932;2023-04-01T04:51:02;9.23;;;5.82;;
53652;SDS011;39553;52.954;5.932;2023-04-01T04:53:28;10.88;;;6.50;;
53652;SDS011;39553;52.954;5.932;2023-04-01T04:55:54;12.90;;;6.72;;
53652;SDS011;39553;52.954;5.932;2023-04-01T04:58:20;14.40;;;7.65;;
53652;SDS011;39553;52.954;5.932;2023-04-01T05:00:46;11.70;;;6.97;;
53652;SDS011;39553;52.954;5.932;2023-04-01T05:03:12;11.07;;;6.35;;
53652;SDS011;39553;52.954;5.932;2023-04-01T05:05:38;12.98;;;7.53;;
53652;SDS011;39553;52.954;5.932;2023-04-01T05:08:04;14.68;;;7.60;;
53652;SDS011;39553;52.954;5.932;2023-04-01T05:10:30;20.85;;;9.73;;
53652;SDS011;39553;52.954;5.932;2023-04-01T05:12:57;20.80;;;9.52;;
53652;SDS011;39553;52.954;5.932;2023-04-01T05:15:23;21.38;;;10.55;;
53652;SDS011;39553;52.954;5.932;2023-04-01T05:17:49;22.15;;;10.65;;
53652;SDS011;39553;52.954;5.932;2023-04-01T05:20:15;19.42;;;11.23;;
53652;SDS011;39553;52.954;5.932;2023-04-01T05:22:41;25.13;;;10.27;;
53652;SDS011;39553;52.954;5.932;2023-04-01T05:25:07;22.77;;;12.20;;
53652;SDS011;39553;52.954;5.932;2023-04-01T05:27:33;21.85;;;12.65;;
53652;SDS011;39553;52.954;5.932;2023-04-01T05:29:59;23.30;;;11.60;;
53652;SDS011;39553;52.954;5.932;2023-04-01T05:32:26;18.85;;;11.40;;
53652;SDS011;39553;52.954;5.932;2023-04-01T05:34:51;25.02;;;12.68;;
53652;SDS011;39553;52.954;5.932;2023-04-01T05:37:18;22.33;;;12.10;;
53652;SDS011;39553;52.954;5.932;2023-04-01T05:39:44;22.52;;;12.35;;
53652;SDS011;39553;52.954;5.932;2023-04-01T05:42:10;23.27;;;12.38;;
53652;SDS011;39553;52.954;5.932;2023-04-01T05:44:36;22.05;;;12.18;;
53652;SDS011;39553;52.954;5.932;2023-04-01T05:47:04;24.17;;;12.18;;
53652;SDS011;39553;52.954;5.932;2023-04-01T05:49:30;23.23;;;12.85;;
53652;SDS011;39553;52.954;5.932;2023-04-01T05:51:56;22.98;;;11.63;;
53652;SDS011;39553;52.954;5.932;2023-04-01T05:54:23;21.00;;;11.82;;
53652;SDS011;39553;52.954;5.932;2023-04-01T05:56:49;22.33;;;12.65;;
53652;SDS011;39553;52.954;5.932;2023-04-01T05:59:15;18.95;;;11.90;;
53652;SDS011;39553;52.954;5.932;2023-04-01T06:01:41;23.85;;;13.25;;
53652;SDS011;39553;52.954;5.932;2023-04-01T06:04:12;24.20;;;12.10;;
53652;SDS011;39553;52.954;5.932;2023-04-01T06:06:41;26.15;;;12.25;;
53652;SDS011;39553;52.954;5.932;2023-04-01T06:09:29;18.92;;;11.88;;
53652;SDS011;39553;52.954;5.932;2023-04-01T06:20:12;20.90;;;11.52;;
53652;SDS011;39553;52.954;5.932;2023-04-01T06:22:57;23.63;;;11.07;;
53652;SDS011;39553;52.954;5.932;2023-04-01T06:38:59;20.20;;;11.38;;
53652;SDS011;39553;52.954;5.932;2023-04-01T06:45:04;19.95;;;11.77;;
53652;SDS011;39553;52.954;5.932;2023-04-01T06:53:44;20.27;;;11.88;;
53652;SDS011;39553;52.954;5.932;2023-04-01T06:56:21;21.25;;;12.15;;
53652;SDS011;39553;52.954;5.932;2023-04-01T06:58:53;23.20;;;12.40;;
53652;SDS011;39553;52.954;5.932;2023-04-01T07:01:23;27.10;;;12.73;;
53652;SDS011;39553;52.954;5.932;2023-04-01T07:04:00;20.20;;;11.48;;
53652;SDS011;39553;52.954;5.932;2023-04-01T07:07:25;18.67;;;10.43;;
53652;SDS011;39553;52.954;5.932;2023-04-01T07:09:24;17.65;;;10.30;;
53652;SDS011;39553;52.954;5.932;2023-04-01T07:12:10;17.63;;;10.90;;
53652;SDS011;39553;52.954;5.932;2023-04-01T07:14:43;17.33;;;9.27;;
53652;SDS011;39553;52.954;5.932;2023-04-01T07:17:20;19.75;;;10.00;;
53652;SDS011;39553;52.954;5.932;2023-04-01T07:22:40;12.82;;;8.02;;
53652;SDS011;39553;52.954;5.932;2023-04-01T07:27:41;7.55;;;4.85;;
53652;SDS011;39553;52.954;5.932;2023-04-01T07:30:12;8.02;;;4.65;;
53652;SDS011;39553;52.954;5.932;2023-04-01T07:33:02;6.38;;;3.33;;
53652;SDS011;39553;52.954;5.932;2023-04-01T07:35:42;3.97;;;2.38;;
53652;SDS011;39553;52.954;5.932;2023-04-01T07:38:16;3.00;;;2.10;;
53652;SDS011;39553;52.954;5.932;2023-04-01T07:41:13;4.43;;;2.80;;
53652;SDS011;39553;52.954;5.932;2023-04-01T07:54:41;7.90;;;4.00;;
53652;SDS011;39553;52.954;5.932;2023-04-01T08:00:13;6.90;;;4.05;;
53652;SDS011;39553;52.954;5.932;2023-04-01T08:19:25;9.45;;;6.53;;
53652;SDS011;39553;52.954;5.932;2023-04-01T08:22:10;13.38;;;7.45;;
53652;SDS011;39553;52.954;5.932;2023-04-01T08:24:43;14.38;;;8.50;;
53652;SDS011;39553;52.954;5.932;2023-04-01T08:27:13;13.82;;;8.07;;
53652;SDS011;39553;52.954;5.932;2023-04-01T08:29:52;14.75;;;8.43;;
53652;SDS011;39553;52.954;5.932;2023-04-01T08:32:44;11.88;;;8.13;;
53652;SDS011;39553;52.954;5.932;2023-04-01T08:35:38;12.60;;;8.43;;
53652;SDS011;39553;52.954;5.932;2023-04-01T08:38:12;14.45;;;8.90;;
53652;SDS011;39553;52.954;5.932;2023-04-01T09:00:27;14.60;;;8.45;;
53652;SDS011;39553;52.954;5.932;2023-04-01T09:12:01;11.40;;;7.07;;
53652;SDS011;39553;52.954;5.932;2023-04-01T09:40:16;15.25;;;9.63;;
53652;SDS011;39553;52.954;5.932;2023-04-01T09:46:03;19.40;;;11.82;;
53652;SDS011;39553;52.954;5.932;2023-04-01T10:05:46;16.48;;;10.45;;
53652;SDS011;39553;52.954;5.932;2023-04-01T10:14:24;14.82;;;10.02;;
53652;SDS011;39553;52.954;5.932;2023-04-01T10:23:21;14.63;;;9.55;;
53652;SDS011;39553;52.954;5.932;2023-04-01T10:26:03;18.45;;;9.88;;
53652;SDS011;39553;52.954;5.932;2023-04-01T10:28:36;13.20;;;8.38;;
53652;SDS011;39553;52.954;5.932;2023-04-01T10:31:24;14.85;;;8.55;;
53652;SDS011;39553;52.954;5.932;2023-04-01T10:35:08;11.48;;;7.25;;
53652;SDS011;39553;52.954;5.932;2023-04-01T10:39:58;9.20;;;6.03;;
53652;SDS011;39553;52.954;5.932;2023-04-01T10:45:53;7.63;;;5.40;;
53652;SDS011;39553;52.954;5.932;2023-04-01T10:54:46;8.05;;;5.30;;
53652;SDS011;39553;52.954;5.932;2023-04-01T10:57:22;7.60;;;5.13;;
53652;SDS011;39553;52.954;5.932;2023-04-01T11:03:30;8.15;;;5.10;;
53652;SDS011;39553;52.954;5.932;2023-04-01T11:32:07;5.40;;;4.03;;
53652;SDS011;39553;52.954;5.932;2023-04-01T11:48:33;7.50;;;4.18;;
53652;SDS011;39553;52.954;5.932;2023-04-01T11:56:43;8.80;;;5.25;;
53652;SDS011;39553;52.954;5.932;2023-04-01T12:13:29;7.07;;;4.30;;
53652;SDS011;39553;52.954;5.932;2023-04-01T12:16:11;6.85;;;3.65;;
53652;SDS011;39553;52.954;5.932;2023-04-01T12:21:53;5.53;;;3.55;;
53652;SDS011;39553;52.954;5.932;2023-04-01T12:27:07;4.72;;;3.75;;
53652;SDS011;39553;52.954;5.932;2023-04-01T12:38:44;5.18;;;3.65;;
53652;SDS011;39553;52.954;5.932;2023-04-01T12:41:35;4.82;;;3.53;;
53652;SDS011;39553;52.954;5.932;2023-04-01T12:49:56;5.00;;;3.58;;
53652;SDS011;39553;52.954;5.932;2023-04-01T12:52:49;4.03;;;2.80;;
53652;SDS011;39553;52.954;5.932;2023-04-01T12:58:15;4.63;;;3.00;;
53652;SDS011;39553;52.954;5.932;2023-04-01T13:00:59;3.95;;;2.88;;
53652;SDS011;39553;52.954;5.932;2023-04-01T13:09:00;6.50;;;3.35;;
53652;SDS011;39553;52.954;5.932;2023-04-01T13:11:53;5.38;;;3.10;;
53652;SDS011;39553;52.954;5.932;2023-04-01T13:25:50;3.55;;;2.72;;
53652;SDS011;39553;52.954;5.932;2023-04-01T13:28:30;4.28;;;2.70;;
53652;SDS011;39553;52.954;5.932;2023-04-01T13:31:09;4.50;;;2.83;;
53652;SDS011;39553;52.954;5.932;2023-04-01T13:33:50;4.60;;;3.03;;
53652;SDS011;39553;52.954;5.932;2023-04-01T13:36:44;4.03;;;3.35;;
53652;SDS011;39553;52.954;5.932;2023-04-01T13:39:32;4.10;;;2.67;;
53652;SDS011;39553;52.954;5.932;2023-04-01T13:42:18;5.13;;;2.67;;
53652;SDS011;39553;52.954;5.932;2023-04-01T13:44:59;3.35;;;2.40;;
53652;SDS011;39553;52.954;5.932;2023-04-01T13:50:46;3.85;;;3.10;;
53652;SDS011;39553;52.954;5.932;2023-04-01T13:53:28;6.60;;;3.15;;
53652;SDS011;39553;52.954;5.932;2023-04-01T13:56:37;5.00;;;2.78;;
53652;SDS011;39553;52.954;5.932;2023-04-01T13:59:06;2.85;;;2.30;;
53652;SDS011;39553;52.954;5.932;2023-04-01T14:07:31;2.63;;;2.30;;
53652;SDS011;39553;52.954;5.932;2023-04-01T14:16:14;7.00;;;2.80;;
53652;SDS011;39553;52.954;5.932;2023-04-01T14:22:04;3.38;;;2.90;;
53652;SDS011;39553;52.954;5.932;2023-04-01T14:30:59;3.78;;;2.45;;
53652;SDS011;39553;52.954;5.932;2023-04-01T14:50:29;5.82;;;2.65;;
53652;SDS011;39553;52.954;5.932;2023-04-01T14:55:51;4.00;;;3.27;;
53652;SDS011;39553;52.954;5.932;2023-04-01T14:58:22;3.67;;;2.80;;
53652;SDS011;39553;52.954;5.932;2023-04-01T15:23:09;3.38;;;2.03;;
53652;SDS011;39553;52.954;5.932;2023-04-01T15:25:45;3.05;;;2.40;;
53652;SDS011;39553;52.954;5.932;2023-04-01T15:28:39;4.43;;;2.58;;
53652;SDS011;39553;52.954;5.932;2023-04-01T15:31:38;2.90;;;2.47;;
53652;SDS011;39553;52.954;5.932;2023-04-01T15:34:24;3.95;;;2.53;;
53652;SDS011;39553;52.954;5.932;2023-04-01T16:02:49;3.95;;;2.40;;
53652;SDS011;39553;52.954;5.932;2023-04-01T16:05:50;4.03;;;2.40;;
53652;SDS011;39553;52.954;5.932;2023-04-01T16:11:48;2.83;;;2.50;;
53652;SDS011;39553;52.954;5.932;2023-04-01T16:17:49;4.20;;;3.13;;
53652;SDS011;39553;52.954;5.932;2023-04-01T16:23:18;3.40;;;2.47;;
53652;SDS011;39553;52.954;5.932;2023-04-01T16:31:55;4.20;;;2.55;;
53652;SDS011;39553;52.954;5.932;2023-04-01T16:45:16;5.47;;;3.45;;
53652;SDS011;39553;52.954;5.932;2023-04-01T16:47:58;7.65;;;4.15;;
53652;SDS011;39553;52.954;5.932;2023-04-01T16:50:48;6.50;;;4.00;;
53652;SDS011;39553;52.954;5.932;2023-04-01T16:53:24;5.57;;;3.70;;
53652;SDS011;39553;52.954;5.932;2023-04-01T16:58:28;6.60;;;3.55;;
53652;SDS011;39553;52.954;5.932;2023-04-01T17:01:44;7.28;;;3.53;;
53652;SDS011;39553;52.954;5.932;2023-04-01T17:04:01;6.18;;;4.00;;
53652;SDS011;39553;52.954;5.932;2023-04-01T17:06:44;6.47;;;3.80;;
53652;SDS011;39553;52.954;5.932;2023-04-01T17:09:25;7.80;;;4.38;;
53652;SDS011;39553;52.954;5.932;2023-04-01T17:12:42;6.22;;;3.95;;
53652;SDS011;39553;52.954;5.932;2023-04-01T17:35:59;5.32;;;3.85;;
53652;SDS011;39553;52.954;5.932;2023-04-01T17:44:19;9.88;;;5.60;;
53652;SDS011;39553;52.954;5.932;2023-04-01T17:49:57;8.70;;;5.07;;
53652;SDS011;39553;52.954;5.932;2023-04-01T17:55:52;10.35;;;5.30;;
53652;SDS011;39553;52.954;5.932;2023-04-01T18:01:11;8.65;;;4.70;;
53652;SDS011;39553;52.954;5.932;2023-04-01T18:04:02;7.07;;;4.60;;
53652;SDS011;39553;52.954;5.932;2023-04-01T18:06:36;8.98;;;5.20;;
53652;SDS011;39553;52.954;5.932;2023-04-01T18:12:31;12.32;;;5.28;;
53652;SDS011;39553;52.954;5.932;2023-04-01T18:15:18;9.63;;;4.38;;
53652;SDS011;39553;52.954;5.932;2023-04-01T18:26:10;6.82;;;4.53;;
53652;SDS011;39553;52.954;5.932;2023-04-01T18:31:31;6.85;;;4.57;;
53652;SDS011;39553;52.954;5.932;2023-04-01T18:34:06;9.52;;;5.32;;
53652;SDS011;39553;52.954;5.932;2023-04-01T18:44:22;9.68;;;5.55;;
53652;SDS011;39553;52.954;5.932;2023-04-01T18:49:53;8.73;;;5.10;;
53652;SDS011;39553;52.954;5.932;2023-04-01T18:52:37;9.70;;;5.63;;
53652;SDS011;39553;52.954;5.932;2023-04-01T19:00:26;11.48;;;5.35;;
53652;SDS011;39553;52.954;5.932;2023-04-01T19:05:48;5.68;;;4.40;;
53652;SDS011;39553;52.954;5.932;2023-04-01T19:13:48;9.27;;;4.72;;
53652;SDS011;39553;52.954;5.932;2023-04-01T19:21:39;9.88;;;5.30;;
53652;SDS011;39553;52.954;5.932;2023-04-01T19:26:48;9.70;;;6.22;;
53652;SDS011;39553;52.954;5.932;2023-04-01T19:35:38;14.95;;;6.57;;
53652;SDS011;39553;52.954;5.932;2023-04-01T19:52:54;9.38;;;6.05;;
53652;SDS011;39553;52.954;5.932;2023-04-01T19:55:29;11.27;;;6.35;;
53652;SDS011;39553;52.954;5.932;2023-04-01T20:00:58;15.52;;;7.05;;
53652;SDS011;39553;52.954;5.932;2023-04-01T20:03:37;12.10;;;6.47;;
53652;SDS011;39553;52.954;5.932;2023-04-01T20:06:14;15.25;;;7.82;;
53652;SDS011;39553;52.954;5.932;2023-04-01T20:11:30;16.40;;;7.75;;
53652;SDS011;39553;52.954;5.932;2023-04-01T20:17:15;11.65;;;6.55;;
53652;SDS011;39553;52.954;5.932;2023-04-01T20:25:27;12.50;;;5.60;;
53652;SDS011;39553;52.954;5.932;2023-04-01T20:33:40;14.13;;;6.90;;
53652;SDS011;39553;52.954;5.932;2023-04-01T20:55:47;13.52;;;6.70;;
53652;SDS011;39553;52.954;5.932;2023-04-01T20:58:24;13.30;;;6.60;;
53652;SDS011;39553;52.954;5.932;2023-04-01T21:06:48;18.92;;;6.85;;
53652;SDS011;39553;52.954;5.932;2023-04-01T21:12:04;15.23;;;6.63;;
53652;SDS011;39553;52.954;5.932;2023-04-01T21:20:21;11.02;;;6.07;;
53652;SDS011;39553;52.954;5.932;2023-04-01T21:23:23;10.77;;;6.47;;
53652;SDS011;39553;52.954;5.932;2023-04-01T21:26:12;11.02;;;6.00;;
53652;SDS011;39553;52.954;5.932;2023-04-01T21:31:50;11.38;;;5.07;;
53652;SDS011;39553;52.954;5.932;2023-04-01T21:37:27;12.30;;;5.22;;
53652;SDS011;39553;52.954;5.932;2023-04-01T22:02:45;12.55;;;5.63;;
53652;SDS011;39553;52.954;5.932;2023-04-01T22:11:12;9.57;;;5.10;;
53652;SDS011;39553;52.954;5.932;2023-04-01T22:13:47;10.68;;;4.57;;
53652;SDS011;39553;52.954;5.932;2023-04-01T22:20:03;9.32;;;5.05;;
53652;SDS011;39553;52.954;5.932;2023-04-01T22:25:08;9.63;;;5.10;;
53652;SDS011;39553;52.954;5.932;2023-04-01T22:27:41;10.23;;;4.95;;
53652;SDS011;39553;52.954;5.932;2023-04-01T22:30:41;11.05;;;5.10;;
53652;SDS011;39553;52.954;5.932;2023-04-01T22:33:34;7.82;;;4.68;;
53652;SDS011;39553;52.954;5.932;2023-04-01T22:38:46;10.73;;;4.30;;
53652;SDS011;39553;52.954;5.932;2023-04-01T22:41:49;10.60;;;4.68;;
53652;SDS011;39553;52.954;5.932;2023-04-01T22:44:55;13.20;;;5.57;;
53652;SDS011;39553;52.954;5.932;2023-04-01T22:50:32;7.88;;;4.55;;
53652;SDS011;39553;52.954;5.932;2023-04-01T22:56:10;10.10;;;4.97;;
53652;SDS011;39553;52.954;5.932;2023-04-01T22:58:42;9.40;;;5.30;;
53652;SDS011;39553;52.954;5.932;2023-04-01T23:01:26;12.15;;;5.22;;
53652;SDS011;39553;52.954;5.932;2023-04-01T23:03:57;10.60;;;5.00;;
53652;SDS011;39553;52.954;5.932;2023-04-01T23:06:26;10.18;;;4.55;;
53652;SDS011;39553;52.954;5.932;2023-04-01T23:09:00;8.05;;;4.35;;
53652;SDS011;39553;52.954;5.932;2023-04-01T23:11:43;9.63;;;5.10;;
53652;SDS011;39553;52.954;5.932;2023-04-01T23:16:57;13.13;;;5.53;;
53652;SDS011;39553;52.954;5.932;2023-04-01T23:19:33;9.63;;;5.38;;
53652;SDS011;39553;52.954;5.932;2023-04-01T23:24:49;7.75;;;4.78;;
53652;SDS011;39553;52.954;5.932;2023-04-01T23:27:31;11.50;;;4.80;;
53652;SDS011;39553;52.954;5.932;2023-04-01T23:30:10;10.38;;;5.63;;
53652;SDS011;39553;52.954;5.932;2023-04-01T23:33:15;7.05;;;4.05;;
53652;SDS011;39553;52.954;5.932;2023-04-01T23:38:42;6.18;;;3.95;;
53652;SDS011;39553;52.954;5.932;2023-04-01T23:41:19;6.82;;;4.28;;
53652;SDS011;39553;52.954;5.932;2023-04-01T23:44:01;9.23;;;4.28;;
53652;SDS011;39553;52.954;5.932;2023-04-01T23:46:30;8.10;;;4.00;;
53652;SDS011;39553;52.954;5.932;2023-04-01T23:48:59;7.82;;;3.97;;
53652;SDS011;39553;52.954;5.932;2023-04-01T23:51:37;9.75;;;3.90;;
53652;SDS011;39553;52.954;5.932;2023-04-01T23:57:17;7.05;;;3.83;;
53652;SDS011;39553;52.954;5.932;2023-04-01T23:59:59;8.65;;;4.18;;
